createdAt,value
2022-09-23T00:01:35.948Z,5.60
2022-09-23T00:04:04.674Z,6.10
2022-09-23T00:06:33.271Z,5.70
2022-09-23T00:09:01.971Z,7.10
2022-09-23T00:11:30.849Z,10.50
2022-09-23T00:14:01.255Z,7.80
2022-09-23T00:16:34.927Z,10.90
2022-09-23T00:19:04.768Z,7.90
2022-09-23T00:21:33.454Z,6.50
2022-09-23T00:24:02.772Z,8.40
2022-09-23T00:26:31.418Z,6.60
2022-09-23T00:29:00.179Z,6.80
2022-09-23T00:31:28.964Z,6.70
2022-09-23T00:34:02.085Z,6.00
2022-09-23T00:39:00.364Z,7.20
2022-09-23T00:41:29.154Z,6.60
2022-09-23T00:44:00.595Z,7.30
2022-09-23T00:46:35.210Z,9.60
2022-09-23T00:49:16.093Z,6.30
2022-09-23T00:51:55.526Z,5.90
2022-09-23T00:54:27.776Z,6.60
2022-09-23T00:57:00.003Z,6.10
2022-09-23T00:59:29.399Z,5.60
2022-09-23T01:02:00.601Z,6.40
2022-09-23T01:04:30.888Z,6.10
2022-09-23T01:06:59.542Z,6.90
2022-09-23T01:09:29.256Z,7.70
2022-09-23T01:12:11.080Z,7.00
2022-09-23T01:14:55.706Z,7.20
2022-09-23T01:17:37.258Z,6.80
2022-09-23T01:20:39.336Z,6.30
2022-09-23T01:23:22.702Z,5.80
2022-09-23T01:29:17.918Z,7.50
2022-09-23T01:31:56.002Z,6.50
2022-09-23T01:34:45.167Z,8.50
2022-09-23T01:37:29.019Z,6.30
2022-09-23T01:40:37.635Z,6.20
2022-09-23T01:43:15.152Z,6.50
2022-09-23T01:45:47.685Z,7.70
2022-09-23T01:48:43.792Z,6.40
2022-09-23T01:51:33.132Z,9.30
2022-09-23T01:54:26.651Z,9.40
2022-09-23T01:57:32.123Z,6.20
2022-09-23T02:00:13.826Z,7.90
2022-09-23T02:03:28.048Z,7.20
2022-09-23T02:06:23.926Z,9.80
2022-09-23T02:09:02.398Z,6.60
2022-09-23T02:11:36.541Z,7.30
2022-09-23T02:14:30.761Z,10.00
2022-09-23T02:17:09.767Z,12.80
2022-09-23T02:19:55.430Z,7.70
2022-09-23T02:22:41.363Z,9.40
2022-09-23T02:25:12.672Z,7.70
2022-09-23T02:27:52.720Z,11.10
2022-09-23T02:30:27.451Z,9.50
2022-09-23T02:33:08.821Z,8.70
2022-09-23T02:35:45.576Z,7.70
2022-09-23T02:38:29.554Z,11.20
2022-09-23T02:41:05.448Z,6.50
2022-09-23T02:43:52.146Z,11.10
2022-09-23T02:46:22.093Z,9.50
2022-09-23T02:49:04.374Z,10.30
2022-09-23T02:51:37.902Z,8.30
2022-09-23T02:54:11.109Z,8.00
2022-09-23T02:59:10.768Z,7.90
2022-09-23T03:02:28.249Z,6.50
2022-09-23T03:05:04.062Z,10.30
2022-09-23T03:08:28.197Z,6.30
2022-09-23T03:11:07.148Z,8.90
2022-09-23T03:14:17.737Z,7.70
2022-09-23T03:17:12.659Z,9.90
2022-09-23T03:19:52.354Z,5.50
2022-09-23T03:22:47.536Z,7.30
2022-09-23T03:25:21.715Z,8.40
2022-09-23T03:27:50.530Z,6.30
2022-09-23T03:30:19.329Z,8.80
2022-09-23T03:32:49.505Z,8.40
2022-09-23T03:35:18.267Z,10.00
2022-09-23T03:38:17.163Z,7.50
2022-09-23T03:40:51.118Z,10.20
2022-09-23T03:43:20.241Z,9.90
2022-09-23T03:45:48.945Z,8.60
2022-09-23T03:48:17.555Z,6.80
2022-09-23T03:50:46.152Z,7.60
2022-09-23T03:53:15.065Z,6.40
2022-09-23T03:55:43.821Z,7.10
2022-09-23T03:58:12.468Z,9.00
2022-09-23T04:00:41.212Z,7.00
2022-09-23T04:03:11.970Z,7.60
2022-09-23T04:05:43.673Z,8.00
2022-09-23T04:08:12.351Z,8.60
2022-09-23T04:10:42.497Z,6.30
2022-09-23T04:13:11.130Z,8.20
2022-09-23T04:15:41.182Z,7.20
2022-09-23T04:18:09.929Z,7.70
2022-09-23T04:20:39.849Z,8.20
2022-09-23T04:23:08.475Z,8.00
2022-09-23T04:25:45.238Z,6.00
2022-09-23T04:28:14.156Z,8.00
2022-09-23T04:30:44.038Z,7.10
2022-09-23T04:33:14.084Z,5.50
2022-09-23T04:35:43.723Z,6.70
2022-09-23T04:38:12.942Z,6.10
2022-09-23T04:40:41.614Z,6.00
2022-09-23T04:43:13.555Z,8.00
2022-09-23T04:45:45.797Z,10.50
2022-09-23T04:48:14.413Z,13.20
2022-09-23T04:50:42.983Z,7.60
2022-09-23T04:53:11.545Z,13.00
2022-09-23T04:55:40.186Z,10.30
2022-09-23T04:58:10.262Z,11.00
2022-09-23T05:00:38.969Z,10.60
2022-09-23T05:03:07.714Z,8.30
2022-09-23T05:05:36.387Z,6.60
2022-09-23T05:08:05.026Z,8.70
2022-09-23T05:10:33.777Z,10.60
2022-09-23T05:13:02.356Z,5.40
2022-09-23T05:15:31.053Z,5.60
2022-09-23T05:17:59.747Z,9.10
2022-09-23T05:20:28.928Z,9.40
2022-09-23T05:22:57.522Z,8.60
2022-09-23T05:25:26.123Z,20.50
2022-09-23T05:27:54.748Z,7.10
2022-09-23T05:30:23.456Z,7.80
2022-09-23T05:32:52.176Z,12.40
2022-09-23T05:35:20.751Z,10.90
2022-09-23T05:37:49.348Z,10.00
2022-09-23T05:40:18.061Z,11.50
2022-09-23T05:42:46.783Z,6.00
2022-09-23T05:45:15.497Z,6.70
2022-09-23T05:47:47.021Z,5.90
2022-09-23T05:50:15.890Z,7.20
2022-09-23T05:52:44.582Z,8.90
2022-09-23T05:55:13.242Z,3.90
2022-09-23T05:57:41.875Z,8.60
2022-09-23T06:00:11.677Z,8.20
2022-09-23T06:02:43.316Z,8.30
2022-09-23T06:05:12.475Z,7.50
2022-09-23T06:07:41.103Z,7.80
2022-09-23T06:10:09.965Z,7.70
2022-09-23T06:12:38.569Z,8.30
2022-09-23T06:15:08.350Z,6.90
2022-09-23T06:17:37.009Z,6.10
2022-09-23T06:20:06.121Z,5.60
2022-09-23T06:22:39.562Z,5.10
2022-09-23T06:25:09.639Z,5.70
2022-09-23T06:27:38.360Z,6.50
2022-09-23T06:30:08.609Z,4.80
2022-09-23T06:32:37.302Z,4.50
2022-09-23T06:35:14.363Z,6.30
2022-09-23T06:37:48.554Z,4.50
2022-09-23T06:40:18.023Z,4.30
2022-09-23T06:42:52.078Z,4.90
2022-09-23T06:45:21.152Z,4.90
2022-09-23T06:47:58.155Z,6.70
2022-09-23T06:50:28.283Z,4.60
2022-09-23T06:52:58.642Z,14.90
2022-09-23T06:55:28.075Z,12.20
2022-09-23T06:57:59.039Z,14.10
2022-09-23T07:00:27.950Z,19.40
2022-09-23T07:02:57.323Z,16.20
2022-09-23T07:05:26.043Z,6.90
2022-09-23T07:07:54.814Z,5.70
2022-09-23T07:10:23.435Z,7.40
2022-09-23T07:12:52.587Z,4.10
2022-09-23T07:15:21.611Z,6.40
2022-09-23T07:17:50.165Z,4.50
2022-09-23T07:20:18.900Z,6.00
2022-09-23T07:22:53.617Z,6.30
2022-09-23T07:25:23.312Z,6.30
2022-09-23T07:27:51.978Z,7.50
2022-09-23T07:30:25.156Z,3.90
2022-09-23T07:32:54.189Z,4.00
2022-09-23T07:35:22.970Z,6.00
2022-09-23T07:37:51.633Z,8.20
2022-09-23T07:40:20.511Z,4.40
2022-09-23T07:42:49.524Z,5.80
2022-09-23T07:45:18.503Z,5.60
2022-09-23T07:47:47.181Z,4.80
2022-09-23T07:50:15.814Z,6.00
2022-09-23T07:52:44.398Z,4.10
2022-09-23T07:55:18.806Z,4.20
2022-09-23T07:57:49.577Z,7.10
2022-09-23T08:00:18.924Z,5.30
2022-09-23T08:02:52.999Z,4.50
2022-09-23T08:05:22.887Z,4.30
2022-09-23T08:07:51.533Z,4.70
2022-09-23T08:10:21.086Z,4.30
2022-09-23T08:12:49.719Z,3.80
2022-09-23T08:15:18.416Z,4.10
2022-09-23T08:17:46.967Z,5.90
2022-09-23T08:20:35.649Z,4.10
2022-09-23T08:23:04.346Z,4.40
2022-09-23T08:25:34.777Z,4.10
2022-09-23T08:28:03.526Z,5.40
2022-09-23T08:30:32.214Z,5.40
2022-09-23T08:33:01.255Z,4.20
2022-09-23T08:35:30.006Z,4.80
2022-09-23T08:37:58.672Z,4.30
2022-09-23T08:40:27.835Z,5.80
2022-09-23T08:42:57.045Z,3.80
2022-09-23T08:45:28.733Z,3.60
2022-09-23T08:48:16.000Z,5.20
2022-09-23T08:51:01.978Z,7.20
2022-09-23T08:53:36.220Z,4.30
2022-09-23T08:56:23.826Z,4.90
2022-09-23T08:59:41.298Z,4.40
2022-09-23T09:02:21.987Z,6.10
2022-09-23T09:05:00.166Z,4.00
2022-09-23T09:07:37.355Z,3.80
2022-09-23T09:10:42.018Z,5.40
2022-09-23T09:13:36.255Z,4.60
2022-09-23T09:16:41.857Z,4.40
2022-09-23T09:19:31.454Z,5.10
2022-09-23T09:22:01.697Z,3.60
2022-09-23T09:24:35.681Z,5.60
2022-09-23T09:27:18.115Z,4.20
2022-09-23T09:29:54.336Z,3.70
2022-09-23T09:32:47.594Z,3.10
2022-09-23T09:35:34.545Z,3.80
2022-09-23T09:38:05.898Z,3.50
2022-09-23T09:40:35.323Z,5.30
2022-09-23T09:43:04.959Z,5.50
2022-09-23T09:46:13.488Z,4.30
2022-09-23T09:49:39.542Z,4.00
2022-09-23T09:52:22.546Z,6.10
2022-09-23T09:54:52.120Z,4.40
2022-09-23T09:57:38.264Z,5.20
2022-09-23T10:00:21.939Z,4.90
2022-09-23T10:03:01.906Z,5.10
2022-09-23T10:05:57.908Z,4.90
2022-09-23T10:08:37.208Z,5.50
2022-09-23T10:11:17.393Z,6.90
2022-09-23T10:14:11.121Z,5.70
2022-09-23T10:16:42.374Z,5.80
2022-09-23T10:19:29.704Z,6.20
2022-09-23T10:22:08.658Z,5.50
2022-09-23T10:24:37.330Z,6.60
2022-09-23T10:27:09.911Z,4.70
2022-09-23T10:29:50.948Z,6.90
2022-09-23T10:32:31.542Z,9.20
2022-09-23T10:35:09.182Z,5.80
2022-09-23T10:37:51.800Z,8.00
2022-09-23T10:40:59.029Z,5.70
2022-09-23T10:44:11.488Z,7.30
2022-09-23T10:46:49.551Z,5.30
2022-09-23T10:49:33.141Z,7.20
2022-09-23T10:52:44.369Z,8.20
2022-09-23T10:55:50.915Z,5.60
2022-09-23T10:58:43.596Z,6.90
2022-09-23T11:01:39.857Z,8.90
2022-09-23T11:04:32.598Z,5.90
2022-09-23T11:07:37.433Z,5.50
2022-09-23T11:10:53.247Z,8.10
2022-09-23T11:13:40.318Z,5.90
2022-09-23T11:16:39.227Z,6.90
2022-09-23T11:20:05.475Z,12.50
2022-09-23T11:23:10.706Z,6.00
2022-09-23T11:26:12.637Z,6.70
2022-09-23T11:29:34.114Z,5.50
2022-09-23T11:32:48.365Z,6.30
2022-09-23T11:35:41.878Z,6.90
2022-09-23T11:38:46.331Z,6.20
2022-09-23T11:41:37.510Z,5.40
2022-09-23T11:44:20.954Z,5.40
2022-09-23T11:47:08.450Z,6.90
2022-09-23T11:49:49.007Z,6.20
2022-09-23T11:52:25.070Z,6.10
2022-09-23T11:55:21.128Z,10.00
2022-09-23T11:58:03.546Z,8.00
2022-09-23T12:00:40.059Z,6.90
2022-09-23T12:03:44.415Z,7.00
2022-09-23T12:06:37.241Z,8.00
2022-09-23T12:09:35.732Z,6.80
2022-09-23T12:12:56.167Z,7.60
2022-09-23T12:16:05.117Z,7.80
2022-09-23T12:18:56.156Z,8.40
2022-09-23T12:21:56.824Z,7.90
2022-09-23T12:24:37.831Z,9.00
2022-09-23T12:27:24.136Z,7.60
2022-09-23T12:30:01.702Z,8.00
2022-09-23T12:32:32.337Z,8.80
2022-09-23T12:35:01.609Z,7.30
2022-09-23T12:37:38.856Z,7.70
2022-09-23T12:40:39.330Z,6.40
2022-09-23T12:43:36.350Z,8.10
2022-09-23T12:46:27.856Z,7.20
2022-09-23T12:48:58.067Z,6.70
2022-09-23T12:51:37.273Z,7.00
2022-09-23T12:54:06.066Z,6.00
2022-09-23T12:56:34.812Z,7.30
2022-09-23T12:59:27.498Z,7.80
2022-09-23T13:01:57.451Z,7.50
2022-09-23T13:04:49.593Z,8.60
2022-09-23T13:07:31.242Z,9.10
2022-09-23T13:10:33.115Z,8.80
2022-09-23T13:13:02.563Z,9.90
2022-09-23T13:15:36.900Z,9.80
2022-09-23T13:18:20.701Z,8.30
2022-09-23T13:20:51.918Z,9.20
2022-09-23T13:23:31.513Z,11.00
2022-09-23T13:26:09.561Z,7.00
2022-09-23T13:28:58.767Z,10.40
2022-09-23T13:31:27.576Z,7.90
2022-09-23T13:34:04.901Z,9.10
2022-09-23T13:36:45.725Z,9.80
2022-09-23T13:39:26.010Z,8.40
2022-09-23T13:42:05.109Z,6.90
2022-09-23T13:44:33.825Z,7.90
2022-09-23T13:47:03.519Z,7.50
2022-09-23T13:49:37.331Z,6.00
2022-09-23T13:52:07.104Z,7.90
2022-09-23T13:54:50.206Z,7.30
2022-09-23T14:00:25.982Z,7.50
2022-09-23T14:02:54.583Z,8.30
2022-09-23T14:05:27.454Z,6.70
2022-09-23T14:10:28.014Z,8.10
2022-09-23T14:12:57.177Z,6.00
2022-09-23T14:15:26.670Z,7.40
2022-09-23T14:18:03.571Z,7.60
2022-09-23T14:20:32.526Z,6.60
2022-09-23T14:23:14.952Z,7.10
2022-09-23T14:25:45.793Z,5.40
2022-09-23T14:28:20.876Z,6.70
2022-09-23T14:30:53.214Z,7.90
2022-09-23T14:33:33.660Z,5.20
2022-09-23T14:37:23.180Z,8.20
2022-09-23T14:39:57.081Z,6.80
2022-09-23T14:42:28.083Z,6.10
2022-09-23T14:44:56.739Z,6.70
2022-09-23T14:47:25.959Z,7.30
2022-09-23T14:50:12.851Z,5.70
2022-09-23T14:52:52.223Z,7.40
2022-09-23T14:55:21.014Z,6.30
2022-09-23T14:58:05.021Z,9.70
2022-09-23T15:00:38.922Z,7.00
2022-09-23T15:03:17.457Z,7.20
2022-09-23T15:05:49.193Z,6.10
2022-09-23T15:08:26.473Z,8.60
2022-09-23T15:10:56.042Z,7.00
2022-09-23T15:13:30.184Z,8.00
2022-09-23T15:16:04.142Z,4.60
2022-09-23T15:18:36.771Z,3.10
2022-09-23T15:21:09.677Z,4.60
2022-09-23T15:23:49.199Z,4.80
2022-09-23T15:26:24.993Z,2.00
2022-09-23T15:28:58.516Z,2.40
2022-09-23T15:31:27.405Z,2.20
2022-09-23T15:33:56.693Z,4.80
2022-09-23T15:36:30.266Z,2.30
2022-09-23T15:39:11.024Z,5.20
2022-09-23T15:41:39.906Z,2.80
2022-09-23T15:44:19.157Z,2.20
2022-09-23T15:46:52.090Z,3.10
2022-09-23T15:52:05.699Z,4.50
2022-09-23T15:54:43.700Z,6.30
2022-09-23T15:57:12.876Z,3.90
2022-09-23T15:59:41.540Z,7.00
2022-09-23T16:02:24.006Z,4.20
2022-09-23T16:04:53.753Z,3.30
2022-09-23T16:07:23.335Z,4.10
2022-09-23T16:09:51.965Z,4.20
2022-09-23T16:12:20.891Z,5.30
2022-09-23T16:14:49.455Z,7.20
2022-09-23T16:17:18.695Z,7.50
2022-09-23T16:19:47.373Z,5.60
2022-09-23T16:22:16.257Z,8.70
2022-09-23T16:24:44.943Z,6.20
2022-09-23T16:27:18.773Z,4.30
2022-09-23T16:29:47.329Z,6.20
2022-09-23T16:32:20.164Z,5.10
2022-09-23T16:34:50.833Z,5.80
2022-09-23T16:37:21.541Z,6.00
2022-09-23T16:39:50.173Z,4.50
2022-09-23T16:42:18.753Z,5.60
2022-09-23T16:44:47.722Z,6.40
2022-09-23T16:47:16.574Z,5.30
2022-09-23T16:49:45.155Z,8.80
2022-09-23T16:52:13.838Z,10.70
2022-09-23T16:54:43.640Z,6.30
2022-09-23T16:57:13.498Z,7.10
2022-09-23T17:00:00.526Z,6.90
2022-09-23T17:02:47.638Z,9.40
2022-09-23T17:05:17.237Z,8.00
2022-09-23T17:07:47.031Z,10.50
2022-09-23T17:10:17.430Z,17.20
2022-09-23T17:12:46.008Z,18.10
2022-09-23T17:15:14.598Z,12.10
2022-09-23T17:17:43.318Z,11.70
2022-09-23T17:20:14.492Z,11.80
2022-09-23T17:22:43.289Z,10.40
2022-09-23T17:25:11.844Z,11.50
2022-09-23T17:27:40.572Z,9.00
2022-09-23T17:30:10.566Z,14.40
2022-09-23T17:32:39.252Z,6.50
2022-09-23T17:35:10.135Z,8.10
2022-09-23T17:37:38.748Z,7.50
2022-09-23T17:40:08.229Z,7.70
2022-09-23T17:42:43.671Z,7.00
2022-09-23T17:45:13.183Z,7.40
2022-09-23T17:47:42.477Z,10.30
2022-09-23T17:50:11.044Z,10.10
2022-09-23T17:52:39.665Z,9.40
2022-09-23T17:55:09.086Z,10.10
2022-09-23T17:57:37.659Z,7.40
2022-09-23T18:00:07.758Z,9.50
2022-09-23T18:02:40.448Z,8.10
2022-09-23T18:05:09.648Z,8.00
2022-09-23T18:07:38.276Z,8.80
2022-09-23T18:10:09.084Z,7.70
2022-09-23T18:12:37.740Z,8.90
2022-09-23T18:15:06.629Z,10.00
2022-09-23T18:17:35.245Z,8.10
2022-09-23T18:20:04.478Z,9.10
2022-09-23T18:22:33.282Z,10.10
2022-09-23T18:25:13.072Z,9.70
2022-09-23T18:27:51.525Z,9.10
2022-09-23T18:30:20.238Z,11.20
2022-09-23T18:32:49.264Z,10.50
2022-09-23T18:35:18.653Z,10.40
2022-09-23T18:37:47.262Z,8.10
2022-09-23T18:40:16.050Z,7.30
2022-09-23T18:42:44.703Z,8.60
2022-09-23T18:45:13.613Z,11.40
2022-09-23T18:48:00.530Z,9.10
2022-09-23T18:50:43.587Z,12.20
2022-09-23T18:53:12.457Z,12.40
2022-09-23T18:55:41.136Z,12.80
2022-09-23T18:58:10.746Z,12.80
2022-09-23T19:00:39.815Z,10.30
2022-09-23T19:03:08.592Z,9.20
2022-09-23T19:05:37.287Z,8.40
2022-09-23T19:08:05.863Z,16.10
2022-09-23T19:10:34.496Z,13.60
2022-09-23T19:13:03.084Z,12.00
2022-09-23T19:15:33.298Z,16.80
2022-09-23T19:18:01.893Z,9.30
2022-09-23T19:20:30.588Z,11.40
2022-09-23T19:22:59.211Z,11.10
2022-09-23T19:25:27.851Z,9.60
2022-09-23T19:27:57.176Z,10.20
2022-09-23T19:30:25.944Z,14.70
2022-09-23T19:32:54.587Z,20.70
2022-09-23T19:35:23.454Z,11.30
2022-09-23T19:37:52.446Z,14.70
2022-09-23T19:40:21.321Z,18.60
2022-09-23T19:42:55.461Z,17.40
2022-09-23T19:45:24.143Z,18.20
2022-09-23T19:47:56.966Z,17.50
2022-09-23T19:50:25.632Z,14.00
2022-09-23T19:52:54.232Z,8.80
2022-09-23T19:55:23.018Z,8.20
2022-09-23T19:57:51.687Z,7.00
2022-09-23T20:00:20.566Z,10.20
2022-09-23T20:02:49.319Z,10.50
2022-09-23T20:05:20.251Z,8.20
2022-09-23T20:07:49.126Z,7.40
2022-09-23T20:10:18.571Z,7.10
2022-09-23T20:12:47.298Z,9.60
2022-09-23T20:15:17.493Z,9.00
2022-09-23T20:17:46.167Z,7.50
2022-09-23T20:20:16.085Z,9.80
2022-09-23T20:22:44.684Z,8.30
2022-09-23T20:25:13.876Z,7.30
2022-09-23T20:27:42.625Z,6.40
2022-09-23T20:30:12.166Z,8.00
2022-09-23T20:32:44.464Z,9.80
2022-09-23T20:35:13.857Z,8.10
2022-09-23T20:37:52.748Z,10.40
2022-09-23T20:40:25.572Z,10.40
2022-09-23T20:42:54.756Z,9.70
2022-09-23T20:45:23.356Z,11.80
2022-09-23T20:47:52.004Z,13.00
2022-09-23T20:50:20.700Z,15.10
2022-09-23T20:52:49.334Z,11.00
2022-09-23T20:55:18.449Z,10.40
2022-09-23T20:57:49.056Z,11.80
2022-09-23T21:00:18.703Z,9.50
2022-09-23T21:02:47.528Z,10.60
2022-09-23T21:05:18.160Z,8.80
2022-09-23T21:07:47.414Z,11.90
2022-09-23T21:10:16.297Z,10.40
2022-09-23T21:12:50.679Z,7.90
2022-09-23T21:15:19.279Z,10.30
2022-09-23T21:17:47.857Z,7.20
2022-09-23T21:20:16.783Z,8.50
2022-09-23T21:22:45.468Z,8.60
2022-09-23T21:25:27.291Z,7.80
2022-09-23T21:27:58.722Z,8.00
2022-09-23T21:30:27.380Z,8.90
2022-09-23T21:32:56.043Z,9.80
2022-09-23T21:35:24.578Z,13.30
2022-09-23T21:37:53.152Z,10.80
2022-09-23T21:40:39.887Z,11.20
2022-09-23T21:43:08.570Z,10.70
2022-09-23T21:45:37.169Z,9.70
2022-09-23T21:48:05.865Z,11.40
2022-09-23T21:50:37.442Z,10.70
2022-09-23T21:53:06.851Z,11.90
2022-09-23T21:55:35.466Z,12.40
2022-09-23T21:58:05.093Z,11.30
2022-09-23T22:00:33.812Z,9.50
2022-09-23T22:03:02.393Z,10.50
2022-09-23T22:05:30.998Z,10.90
2022-09-23T22:07:59.648Z,12.20
2022-09-23T22:10:28.357Z,9.30
2022-09-23T22:12:57.090Z,10.00
2022-09-23T22:15:26.013Z,13.40
2022-09-23T22:17:54.992Z,10.70
2022-09-23T22:20:23.865Z,11.40
2022-09-23T22:22:53.467Z,9.60
2022-09-23T22:25:22.078Z,8.90
2022-09-23T22:28:09.435Z,13.60
2022-09-23T22:30:58.245Z,9.60
2022-09-23T22:33:26.854Z,9.90
2022-09-23T22:36:03.964Z,14.50
2022-09-23T22:38:33.211Z,10.80
2022-09-23T22:41:01.961Z,10.30
2022-09-23T22:43:33.859Z,11.70
2022-09-23T22:46:02.621Z,11.10
2022-09-23T22:48:31.297Z,10.40
2022-09-23T22:51:01.402Z,10.90
2022-09-23T22:53:30.075Z,10.30
2022-09-23T22:56:01.485Z,9.90
2022-09-23T22:58:32.621Z,11.40
2022-09-23T23:01:02.594Z,10.80
2022-09-23T23:03:33.659Z,11.00
2022-09-23T23:06:04.547Z,9.10
2022-09-23T23:08:33.609Z,8.20
2022-09-23T23:11:11.580Z,13.10
2022-09-23T23:13:43.863Z,12.50
2022-09-23T23:16:13.431Z,9.80
2022-09-23T23:18:45.799Z,9.30
2022-09-23T23:21:19.651Z,10.70
2022-09-23T23:23:53.416Z,10.70
2022-09-23T23:26:26.177Z,11.90
2022-09-23T23:28:57.056Z,9.20
2022-09-23T23:31:28.985Z,9.50
2022-09-23T23:33:57.735Z,9.60
2022-09-23T23:36:26.357Z,12.10
2022-09-23T23:38:54.980Z,8.80
2022-09-23T23:41:23.674Z,10.30
2022-09-23T23:44:00.526Z,9.00
2022-09-23T23:46:32.204Z,9.50
2022-09-23T23:49:01.312Z,9.80
2022-09-23T23:51:30.198Z,9.80
2022-09-23T23:54:00.387Z,8.70
2022-09-23T23:56:30.954Z,10.30
2022-09-23T23:59:05.199Z,8.30
